Time;durP1;ratioP1;P1;durP2;ratioP2;P2;SDS_P1;SDS_P2;PMS_P1;PMS_P2;Temp;Humidity;BMP_temperature;BMP_pressure;BME280_temperature;BME280_humidity;BME280_pressure;Samples;Min_cycle;Max_cycle;Signal;HPM_P1;HPM_P2
2022/09/15 00:00:00;;;;;;;;;;;;;;;;;;5008201;28;20058;-76
2022/09/15 00:02:31;;;;;;;4.90;0.88;;;;;;;;;;5009096;28;19921;-74
2022/09/15 00:05:02;;;;;;;3.92;0.95;;;;;;;;;;5007252;28;20057;-73
2022/09/15 00:07:32;;;;;;;7.57;1.30;;;;;;;;;;5007034;28;20038;-74
2022/09/15 00:10:03;;;;;;;8.30;1.20;;;;;;;;;;5007071;28;20049;-73
2022/09/15 00:12:33;;;;;;;7.15;1.27;;;;;;;;;;5007283;28;20045;-72
2022/09/15 00:15:05;;;;;;;2.70;0.80;;;;;;;;;;5007096;28;20052;-72
2022/09/15 00:17:35;;;;;;;10.70;1.30;;;;;;;;;;5007000;28;20054;-71
2022/09/15 00:20:06;;;;;;;8.55;1.35;;;;;;;;;;5006958;28;20634;-74
2022/09/15 00:22:36;;;;;;;4.10;0.95;;;;;;;;;;4997291;28;20043;-73
2022/09/15 00:25:06;;;;;;;5.68;1.00;;;;;;;;;;4986319;28;20058;-72
2022/09/15 00:27:36;;;;;;;5.00;0.80;;;;;;;;;;4987401;28;20058;-71
2022/09/15 00:30:07;;;;;;;5.40;0.90;;;;;;;;;;4985359;28;20063;-72
2022/09/15 00:32:37;;;;;;;3.60;1.15;;;;;;;;;;4986787;28;20050;-75
2022/09/15 00:35:08;;;;;;;4.45;1.30;;;;;;;;;;4988836;28;20042;-74
2022/09/15 00:37:37;;;;;;;8.02;1.05;;;;;;;;;;4987162;28;20080;-74
2022/09/15 00:40:08;;;;;;;3.58;0.85;;;;;;;;;;4988161;28;20054;-73
2022/09/15 00:42:38;;;;;;;6.43;1.20;;;;;;;;;;4987428;28;20038;-75
2022/09/15 00:45:16;;;;;;;6.80;0.93;;;;;;;;;;4987418;28;20057;-76
2022/09/15 00:47:46;;;;;;;3.67;0.88;;;;;;;;;;4987109;28;20050;-75
2022/09/15 00:50:19;;;;;;;6.80;1.25;;;;;;;;;;4987188;28;20057;-74
2022/09/15 00:52:57;;;;;;;7.50;1.42;;;;;;;;;;4986945;28;20045;-74
2022/09/15 00:55:38;;;;;;;7.45;0.90;;;;;;;;;;4987074;28;20089;-73
2022/09/15 00:58:12;;;;;;;8.80;1.15;;;;;;;;;;4986983;28;20046;-72
2022/09/15 01:00:48;;;;;;;4.35;1.08;;;;;;;;;;4985698;28;20540;-72
2022/09/15 01:03:18;;;;;;;7.47;1.00;;;;;;;;;;4986739;28;20413;-74
2022/09/15 01:05:53;;;;;;;3.75;0.70;;;;;;;;;;4987544;28;20050;-71
2022/09/15 01:08:35;;;;;;;8.88;0.88;;;;;;;;;;4986105;28;20038;-71
2022/09/15 01:11:05;;;;;;;6.13;0.82;;;;;;;;;;4987033;28;20050;-75
2022/09/15 01:13:35;;;;;;;3.75;0.80;;;;;;;;;;4986948;28;20050;-72
2022/09/15 01:16:22;;;;;;;6.05;0.65;;;;;;;;;;4986649;28;20054;-74
2022/09/15 01:19:13;;;;;;;5.45;0.80;;;;;;;;;;4986736;28;20058;-75
2022/09/15 01:22:05;;;;;;;4.50;1.33;;;;;;;;;;4986014;28;20042;-74
2022/09/15 01:24:48;;;;;;;4.53;0.95;;;;;;;;;;4986930;28;20058;-75
2022/09/15 01:27:21;;;;;;;4.97;1.00;;;;;;;;;;4986809;28;20409;-73
2022/09/15 01:30:20;;;;;;;6.72;1.02;;;;;;;;;;4986580;28;20050;-75
2022/09/15 01:33:08;;;;;;;5.85;1.58;;;;;;;;;;4986306;28;20513;-73
2022/09/15 01:35:56;;;;;;;;;;;;;;;;;;4987367;28;20046;-72
2022/09/15 01:38:38;;;;;;;2.67;0.75;;;;;;;;;;4989599;28;19933;-74
2022/09/15 01:41:18;;;;;;;5.72;1.20;;;;;;;;;;4990210;28;20054;-73
2022/09/15 01:44:08;;;;;;;4.90;1.10;;;;;;;;;;4990599;28;20047;-72
2022/09/15 01:46:46;;;;;;;5.07;1.25;;;;;;;;;;4990492;28;20103;-73
2022/09/15 01:49:21;;;;;;;8.70;1.70;;;;;;;;;;4989762;28;20042;-72
2022/09/15 01:51:53;;;;;;;5.25;1.45;;;;;;;;;;4990206;28;20062;-72
2022/09/15 01:54:31;;;;;;;3.80;1.08;;;;;;;;;;4990363;28;20061;-75
2022/09/15 01:57:03;;;;;;;10.60;1.67;;;;;;;;;;4990184;28;20050;-72
2022/09/15 01:59:33;;;;;;;8.25;1.13;;;;;;;;;;4989836;28;20050;-72
2022/09/15 02:02:11;;;;;;;6.20;1.40;;;;;;;;;;4989811;28;20046;-74
2022/09/15 02:04:47;;;;;;;5.07;1.17;;;;;;;;;;4990262;28;20062;-72
2022/09/15 02:07:48;;;;;;;3.78;1.40;;;;;;;;;;4989625;28;20057;-75
2022/09/15 02:10:36;;;;;;;3.83;1.33;;;;;;;;;;4988116;28;20058;-72
2022/09/15 02:13:15;;;;;;;3.83;0.98;;;;;;;;;;4989881;28;20057;-72
2022/09/15 02:15:53;;;;;;;5.57;1.13;;;;;;;;;;4989672;28;20042;-75
2022/09/15 02:18:44;;;;;;;6.07;1.50;;;;;;;;;;4989327;28;20050;-72
2022/09/15 02:21:22;;;;;;;5.20;1.20;;;;;;;;;;4989039;28;20077;-75
2022/09/15 02:23:57;;;;;;;8.38;1.63;;;;;;;;;;4989724;28;20069;-72
2022/09/15 02:26:30;;;;;;;7.05;1.83;;;;;;;;;;4989269;28;20053;-71
2022/09/15 02:29:06;;;;;;;5.78;1.85;;;;;;;;;;4989827;28;20046;-73
2022/09/15 02:31:39;;;;;;;7.07;1.00;;;;;;;;;;4990183;28;20938;-73
2022/09/15 02:34:18;;;;;;;9.45;1.60;;;;;;;;;;4989722;28;20050;-74
2022/09/15 02:36:51;;;;;;;5.13;1.10;;;;;;;;;;4989641;28;20046;-70
2022/09/15 02:39:26;;;;;;;5.68;1.25;;;;;;;;;;4988481;28;20054;-71
2022/09/15 02:41:56;;;;;;;6.72;1.27;;;;;;;;;;4988813;28;20119;-71
2022/09/15 02:44:25;;;;;;;7.88;1.48;;;;;;;;;;4988131;28;20054;-73
2022/09/15 02:47:00;;;;;;;7.93;1.20;;;;;;;;;;4988637;28;20050;-75
2022/09/15 02:49:30;;;;;;;5.90;1.15;;;;;;;;;;4988100;28;20042;-74
2022/09/15 02:52:00;;;;;;;;;;;;;;;;;;4989841;28;20069;-72
2022/09/15 02:54:30;;;;;;;6.90;1.73;;;;;;;;;;4989588;28;19922;-72
2022/09/15 02:57:00;;;;;;;9.70;1.55;;;;;;;;;;4988135;28;20051;-73
2022/09/15 03:00:11;;;;;;;;;;;;;;;;;;4989764;28;20046;-73
2022/09/15 03:02:19;;;;;;;6.28;1.90;;;;;;;;;;4988540;28;19925;-73
2022/09/15 03:04:49;;;;;;;7.13;1.40;;;;;;;;;;4988615;28;20057;-75
2022/09/15 03:07:18;;;;;;;;;;;;;;;;;;4988893;28;20144;-72
2022/09/15 03:09:48;;;;;;;7.75;1.45;;;;;;;;;;4988548;28;19932;-75
2022/09/15 03:12:18;;;;;;;7.60;1.10;;;;;;;;;;4986685;28;20082;-73
2022/09/15 03:14:49;;;;;;;13.98;1.65;;;;;;;;;;4987121;28;20054;-72
2022/09/15 03:17:19;;;;;;;5.97;1.23;;;;;;;;;;4988527;28;21199;-71
2022/09/15 03:19:49;;;;;;;;;;;;;;;;;;4989139;28;20396;-72
2022/09/15 03:22:19;;;;;;;7.32;1.05;;;;;;;;;;4988962;28;19926;-72
2022/09/15 03:24:48;;;;;;;;;;;;;;;;;;4988857;28;20122;-74
2022/09/15 03:27:18;;;;;;;4.28;1.33;;;;;;;;;;4988274;28;19929;-75
2022/09/15 03:29:48;;;;;;;;;;;;;;;;;;4988873;28;20050;-72
2022/09/15 03:32:17;;;;;;;7.68;0.95;;;;;;;;;;4988612;28;19953;-73
2022/09/15 03:34:47;;;;;;;6.38;1.33;;;;;;;;;;4988315;28;20069;-74
2022/09/15 03:37:16;;;;;;;;;;;;;;;;;;4989423;28;20054;-73
2022/09/15 03:39:47;;;;;;;4.28;0.80;;;;;;;;;;4989334;28;20296;-74
2022/09/15 03:42:17;;;;;;;3.58;1.13;;;;;;;;;;4988185;28;20046;-72
2022/09/15 03:44:46;;;;;;;4.53;1.00;;;;;;;;;;4988274;28;20050;-72
2022/09/15 03:47:17;;;;;;;4.90;1.27;;;;;;;;;;4987665;28;20054;-74
2022/09/15 03:49:46;;;;;;;;;;;;;;;;;;4988806;28;20485;-74
2022/09/15 03:52:16;;;;;;;6.38;0.90;;;;;;;;;;4986537;28;20300;-74
2022/09/15 03:54:48;;;;;;;2.83;0.55;;;;;;;;;;4987532;28;20521;-74
2022/09/15 03:57:17;;;;;;;5.40;1.10;;;;;;;;;;4987643;28;20055;-72
2022/09/15 03:59:47;;;;;;;;;;;;;;;;;;4987230;28;20391;-74
2022/09/15 04:02:16;;;;;;;8.27;1.73;;;;;;;;;;4987198;28;20407;-75
2022/09/15 04:04:46;;;;;;;3.92;0.75;;;;;;;;;;4988024;28;20067;-71
2022/09/15 04:07:15;;;;;;;;;;;;;;;;;;4987982;28;20050;-74
2022/09/15 04:09:45;;;;;;;6.00;1.17;;;;;;;;;;4987852;28;19928;-74
2022/09/15 04:12:14;;;;;;;;;;;;;;;;;;4988444;28;20510;-74
2022/09/15 04:14:45;;;;;;;3.55;1.00;;;;;;;;;;4987742;28;19921;-73
2022/09/15 04:17:16;;;;;;;3.00;1.17;;;;;;;;;;4987679;28;20046;-73
2022/09/15 04:19:45;;;;;;;;;;;;;;;;;;4987863;28;20046;-74
2022/09/15 04:22:15;;;;;;;5.88;1.10;;;;;;;;;;4987420;28;20353;-75
2022/09/15 04:24:48;;;;;;;3.50;1.42;;;;;;;;;;4987511;28;20053;-75
2022/09/15 04:27:18;;;;;;;4.40;1.13;;;;;;;;;;4986958;28;20065;-74
2022/09/15 04:29:51;;;;;;;6.20;1.48;;;;;;;;;;4987080;28;20057;-75
2022/09/15 04:32:21;;;;;;;3.38;1.13;;;;;;;;;;4987681;28;20054;-74
2022/09/15 04:34:51;;;;;;;5.43;1.25;;;;;;;;;;4987276;28;20053;-73
2022/09/15 04:37:22;;;;;;;1.42;0.95;;;;;;;;;;4987325;28;20049;-71
2022/09/15 04:39:52;;;;;;;5.40;1.30;;;;;;;;;;4987448;28;20108;-73
2022/09/15 04:42:22;;;;;;;7.75;1.55;;;;;;;;;;4987395;28;20057;-71
2022/09/15 04:44:52;;;;;;;4.35;1.17;;;;;;;;;;4987157;28;20058;-72
2022/09/15 04:47:22;;;;;;;2.58;0.77;;;;;;;;;;4986697;28;20441;-75
2022/09/15 04:49:51;;;;;;;;;;;;;;;;;;4987857;28;20050;-75
2022/09/15 04:52:21;;;;;;;5.13;0.90;;;;;;;;;;4987258;28;19926;-73
2022/09/15 04:54:50;;;;;;;;;;;;;;;;;;4987429;28;20055;-72
2022/09/15 04:57:19;;;;;;;3.88;1.20;;;;;;;;;;4986993;28;20407;-75
2022/09/15 04:59:49;;;;;;;4.78;1.60;;;;;;;;;;4987383;28;20494;-73
2022/09/15 05:02:20;;;;;;;5.50;1.70;;;;;;;;;;4987236;28;20053;-72
2022/09/15 05:04:50;;;;;;;8.35;1.85;;;;;;;;;;4987737;28;20050;-75
2022/09/15 05:07:20;;;;;;;3.17;1.40;;;;;;;;;;4987122;28;20051;-73
2022/09/15 05:09:50;;;;;;;;;;;;;;;;;;4987470;28;20407;-73
2022/09/15 05:12:20;;;;;;;5.60;1.88;;;;;;;;;;4989901;28;19932;-71
2022/09/15 05:14:50;;;;;;;3.97;1.40;;;;;;;;;;4990651;28;20506;-72
2022/09/15 05:17:20;;;;;;;;;;;;;;;;;;4991176;28;20056;-71
2022/09/15 05:19:54;;;;;;;7.68;1.77;;;;;;;;;;4989702;28;20308;-71
2022/09/15 05:22:23;;;;;;;;;;;;;;;;;;4991146;28;20130;-73
2022/09/15 05:24:54;;;;;;;3.45;1.70;;;;;;;;;;4990501;28;19925;-73
2022/09/15 05:27:23;;;;;;;5.50;2.28;;;;;;;;;;4988390;28;20069;-71
2022/09/15 05:29:53;;;;;;;;;;;;;;;;;;4989797;28;20065;-74
2022/09/15 05:32:43;;;;;;;4.25;2.00;;;;;;;;;;4989536;28;20380;-72
2022/09/15 05:35:12;;;;;;;;;;;;;;;;;;4991138;28;20046;-72
2022/09/15 05:37:42;;;;;;;4.80;1.90;;;;;;;;;;4990551;28;19922;-71
2022/09/15 05:40:11;;;;;;;;;;;;;;;;;;4990567;28;20058;-71
2022/09/15 05:42:41;;;;;;;3.08;1.92;;;;;;;;;;4990290;28;19921;-73
2022/09/15 05:45:10;;;;;;;4.80;2.08;;;;;;;;;;4990561;28;20050;-72
2022/09/15 05:47:40;;;;;;;7.38;1.75;;;;;;;;;;4989800;28;20046;-71
2022/09/15 05:50:10;;;;;;;6.57;2.17;;;;;;;;;;4990431;28;20050;-71
2022/09/15 05:52:39;;;;;;;;;;;;;;;;;;4990536;28;20062;-72
2022/09/15 05:55:09;;;;;;;2.50;1.58;;;;;;;;;;4988865;28;19929;-72
2022/09/15 05:57:38;;;;;;;7.85;2.22;;;;;;;;;;4989915;28;20046;-74
2022/09/15 06:00:08;;;;;;;;;;;;;;;;;;4990780;28;20054;-75
2022/09/15 06:02:38;;;;;;;8.05;2.08;;;;;;;;;;4990102;28;20325;-75
2022/09/15 06:05:09;;;;;;;6.47;1.85;;;;;;;;;;4989889;28;20055;-72
2022/09/15 06:07:38;;;;;;;3.00;1.60;;;;;;;;;;4989830;28;20046;-72
2022/09/15 06:10:08;;;;;;;;;;;;;;;;;;4988764;28;20058;-73
2022/09/15 06:12:37;;;;;;;6.93;2.10;;;;;;;;;;4988351;28;19932;-71
2022/09/15 06:15:07;;;;;;;;;;;;;;;;;;4989890;28;20050;-72
2022/09/15 06:17:37;;;;;;;3.40;1.30;;;;;;;;;;4989889;28;19926;-72
2022/09/15 06:20:08;;;;;;;2.22;1.27;;;;;;;;;;4989469;28;20061;-71
2022/09/15 06:22:38;;;;;;;3.50;1.30;;;;;;;;;;4988844;28;20516;-73
2022/09/15 06:25:08;;;;;;;1.55;0.65;;;;;;;;;;4990111;28;20045;-73
2022/09/15 06:27:40;;;;;;;0.63;0.50;;;;;;;;;;4989824;28;20421;-71
2022/09/15 06:30:10;;;;;;;2.95;0.85;;;;;;;;;;4989485;28;20047;-74
2022/09/15 06:32:40;;;;;;;1.48;0.70;;;;;;;;;;4989589;28;20401;-72
2022/09/15 06:35:16;;;;;;;2.60;0.95;;;;;;;;;;4989263;28;20058;-76
2022/09/15 06:37:46;;;;;;;3.38;1.17;;;;;;;;;;4989324;28;20050;-73
2022/09/15 06:40:16;;;;;;;1.58;1.00;;;;;;;;;;4989317;28;20046;-71
2022/09/15 06:42:46;;;;;;;3.45;0.70;;;;;;;;;;4989191;28;20073;-75
2022/09/15 06:45:15;;;;;;;4.80;0.88;;;;;;;;;;4989954;28;20046;-73
2022/09/15 06:47:45;;;;;;;0.90;0.45;;;;;;;;;;4989340;28;20050;-74
2022/09/15 06:50:35;;;;;;;2.63;0.65;;;;;;;;;;4989025;28;20456;-73
2022/09/15 06:53:05;;;;;;;0.85;0.40;;;;;;;;;;4988417;28;20076;-73
2022/09/15 06:55:35;;;;;;;;;;;;;;;;;;4988267;28;20054;-74
2022/09/15 06:58:04;;;;;;;5.25;0.57;;;;;;;;;;4989066;28;19952;-74
2022/09/15 07:00:33;;;;;;;;;;;;;;;;;;4989419;28;20058;-75
2022/09/15 07:03:03;;;;;;;2.53;0.70;;;;;;;;;;4988810;28;19926;-72
2022/09/15 07:05:33;;;;;;;1.77;0.70;;;;;;;;;;4989546;28;20497;-74
2022/09/15 07:08:03;;;;;;;3.60;0.95;;;;;;;;;;4988555;28;20066;-73
2022/09/15 07:10:32;;;;;;;;;;;;;;;;;;4989113;28;20038;-72
2022/09/15 07:13:02;;;;;;;1.58;0.60;;;;;;;;;;4988904;28;19922;-71
2022/09/15 07:15:32;;;;;;;8.52;0.80;;;;;;;;;;4989416;28;20417;-71
2022/09/15 07:18:01;;;;;;;8.48;1.05;;;;;;;;;;4988554;28;20057;-74
2022/09/15 07:20:34;;;;;;;7.18;2.03;;;;;;;;;;4988070;28;20046;-73
2022/09/15 07:23:04;;;;;;;5.13;1.10;;;;;;;;;;4988447;28;20046;-72
2022/09/15 07:25:33;;;;;;;;;;;;;;;;;;4987751;28;20058;-73
2022/09/15 07:28:03;;;;;;;2.88;0.90;;;;;;;;;;4988418;28;19925;-73
2022/09/15 07:30:33;;;;;;;2.30;0.77;;;;;;;;;;4986542;28;20062;-73
2022/09/15 07:33:02;;;;;;;;;;;;;;;;;;4988691;28;20524;-75
2022/09/15 07:35:32;;;;;;;5.90;0.98;;;;;;;;;;4987896;28;19926;-73
2022/09/15 07:38:01;;;;;;;6.50;0.98;;;;;;;;;;4988248;28;20505;-72
2022/09/15 07:40:32;;;;;;;7.78;0.82;;;;;;;;;;4988445;28;20043;-73
2022/09/15 07:43:03;;;;;;;9.85;1.38;;;;;;;;;;4988170;28;20065;-71
2022/09/15 07:45:35;;;;;;;10.88;1.30;;;;;;;;;;4987770;28;20053;-73
2022/09/15 07:48:11;;;;;;;9.27;1.27;;;;;;;;;;4987977;28;20050;-70
2022/09/15 07:50:40;;;;;;;13.35;1.65;;;;;;;;;;4987490;28;20050;-72
2022/09/15 07:53:10;;;;;;;;;;;;;;;;;;4988745;28;20466;-73
2022/09/15 07:55:39;;;;;;;7.88;1.30;;;;;;;;;;4987998;28;19925;-70
2022/09/15 07:58:08;;;;;;;;;;;;;;;;;;4988264;28;20057;-72
2022/09/15 08:00:38;;;;;;;3.83;0.90;;;;;;;;;;4987722;28;19932;-74
2022/09/15 08:03:07;;;;;;;;;;;;;;;;;;4988177;28;20058;-71
2022/09/15 08:05:37;;;;;;;5.80;1.30;;;;;;;;;;4987670;28;19925;-73
2022/09/15 08:08:13;;;;;;;3.25;1.10;;;;;;;;;;4987901;28;20043;-71
2022/09/15 08:10:43;;;;;;;2.67;1.13;;;;;;;;;;4987813;28;20517;-74
2022/09/15 08:13:13;;;;;;;11.95;1.10;;;;;;;;;;4987222;28;20162;-72
2022/09/15 08:15:43;;;;;;;15.20;1.00;;;;;;;;;;4987354;28;20053;-73
2022/09/15 08:18:14;;;;;;;8.73;1.17;;;;;;;;;;4987798;28;20053;-71
2022/09/15 08:20:44;;;;;;;4.60;1.08;;;;;;;;;;4987381;28;20046;-73
2022/09/15 08:23:14;;;;;;;2.80;0.90;;;;;;;;;;4988116;28;20046;-73
2022/09/15 08:25:44;;;;;;;7.03;1.02;;;;;;;;;;4987342;28;20050;-69
2022/09/15 08:28:14;;;;;;;5.47;1.02;;;;;;;;;;4987244;28;20053;-71
2022/09/15 08:30:44;;;;;;;4.90;0.90;;;;;;;;;;4987364;28;20122;-70
2022/09/15 08:33:13;;;;;;;;;;;;;;;;;;4988169;28;20076;-69
2022/09/15 08:35:43;;;;;;;7.80;1.13;;;;;;;;;;4987147;28;19926;-73
2022/09/15 08:38:13;;;;;;;5.13;1.02;;;;;;;;;;4987886;28;20061;-71
2022/09/15 08:40:44;;;;;;;;;;;;;;;;;;4987598;28;20046;-70
2022/09/15 08:43:20;;;;;;;7.72;1.00;;;;;;;;;;4987299;28;19933;-71
2022/09/15 08:46:03;;;;;;;7.25;1.20;;;;;;;;;;4987375;28;20525;-71
2022/09/15 08:48:40;;;;;;;4.10;1.33;;;;;;;;;;4990050;28;20058;-74
2022/09/15 08:51:22;;;;;;;7.38;1.23;;;;;;;;;;4989838;28;20067;-73
2022/09/15 08:54:02;;;;;;;7.35;1.10;;;;;;;;;;4991562;28;20057;-71
2022/09/15 08:56:35;;;;;;;8.20;1.30;;;;;;;;;;4991073;28;20053;-74
2022/09/15 08:59:18;;;;;;;6.50;1.08;;;;;;;;;;4991204;28;20057;-72
2022/09/15 09:01:56;;;;;;;5.38;1.15;;;;;;;;;;4990842;28;20050;-73
2022/09/15 09:04:42;;;;;;;2.47;1.08;;;;;;;;;;4991061;28;20054;-71
2022/09/15 09:07:25;;;;;;;3.28;1.55;;;;;;;;;;4991585;28;20047;-70
2022/09/15 09:10:02;;;;;;;4.72;0.80;;;;;;;;;;4990646;28;20058;-72
2022/09/15 09:12:47;;;;;;;7.60;1.00;;;;;;;;;;4990587;28;20065;-72
2022/09/15 09:15:42;;;;;;;6.35;1.02;;;;;;;;;;4991311;28;20046;-70
2022/09/15 09:18:30;;;;;;;7.43;1.63;;;;;;;;;;4990618;28;20050;-71
2022/09/15 09:21:21;;;;;;;4.60;1.75;;;;;;;;;;4990832;28;20061;-71
2022/09/15 09:24:23;;;;;;;3.47;1.20;;;;;;;;;;4991061;28;20049;-71
2022/09/15 09:26:55;;;;;;;8.48;1.55;;;;;;;;;;4990138;28;20046;-72
2022/09/15 09:29:32;;;;;;;3.97;0.90;;;;;;;;;;4989872;28;20699;-76
2022/09/15 09:32:03;;;;;;;4.80;1.17;;;;;;;;;;4990335;28;20046;-70
2022/09/15 09:34:56;;;;;;;8.60;1.30;;;;;;;;;;4990802;28;20537;-70
2022/09/15 09:37:27;;;;;;;8.50;1.48;;;;;;;;;;4991938;28;20067;-73
2022/09/15 09:39:57;;;;;;;7.85;1.38;;;;;;;;;;4990369;28;20054;-72
2022/09/15 09:42:31;;;;;;;7.68;1.40;;;;;;;;;;4990790;28;20065;-72
2022/09/15 09:45:01;;;;;;;7.13;1.02;;;;;;;;;;4990333;28;20038;-73
2022/09/15 09:47:33;;;;;;;7.28;1.73;;;;;;;;;;4989433;28;20509;-73
2022/09/15 09:50:05;;;;;;;10.88;1.83;;;;;;;;;;4989668;28;20042;-71
2022/09/15 09:52:38;;;;;;;13.73;1.42;;;;;;;;;;4991518;28;20054;-73
2022/09/15 09:55:22;;;;;;;3.13;0.90;;;;;;;;;;4990890;28;20073;-74
2022/09/15 09:57:53;;;;;;;10.50;1.15;;;;;;;;;;4989886;28;20065;-72
2022/09/15 10:00:33;;;;;;;7.70;0.90;;;;;;;;;;4989483;28;20038;-73
2022/09/15 10:03:18;;;;;;;3.97;1.10;;;;;;;;;;4989763;28;20035;-70
2022/09/15 10:06:03;;;;;;;5.50;1.10;;;;;;;;;;4989776;28;20046;-73
2022/09/15 10:08:35;;;;;;;5.55;1.50;;;;;;;;;;4988988;28;20054;-73
2022/09/15 10:11:09;;;;;;;9.65;1.10;;;;;;;;;;4990060;28;20061;-75
2022/09/15 10:13:51;;;;;;;7.43;1.15;;;;;;;;;;4989752;28;20046;-70
2022/09/15 10:16:22;;;;;;;5.75;1.00;;;;;;;;;;4989592;28;20042;-74
2022/09/15 10:18:56;;;;;;;6.65;1.25;;;;;;;;;;4988672;28;20154;-69
2022/09/15 10:21:26;;;;;;;5.30;0.88;;;;;;;;;;4989827;28;20053;-70
2022/09/15 10:23:57;;;;;;;6.07;0.93;;;;;;;;;;4989530;28;20050;-73
2022/09/15 10:26:33;;;;;;;6.10;1.50;;;;;;;;;;4989804;28;20481;-70
2022/09/15 10:29:11;;;;;;;4.72;0.90;;;;;;;;;;4988203;28;20410;-70
2022/09/15 10:31:43;;;;;;;7.95;1.38;;;;;;;;;;4989417;28;20061;-74
2022/09/15 10:34:29;;;;;;;8.85;1.40;;;;;;;;;;4989113;28;20054;-71
2022/09/15 10:37:31;;;;;;;9.48;1.33;;;;;;;;;;4989210;28;20053;-70
2022/09/15 10:40:28;;;;;;;2.45;1.02;;;;;;;;;;4989443;28;20057;-74
2022/09/15 10:43:32;;;;;;;9.65;1.25;;;;;;;;;;4987827;28;20054;-69
2022/09/15 10:46:11;;;;;;;5.93;1.25;;;;;;;;;;4989520;28;20046;-74
2022/09/15 10:49:11;;;;;;;4.82;0.82;;;;;;;;;;4988908;28;20437;-74
2022/09/15 10:51:48;;;;;;;6.50;1.00;;;;;;;;;;4988800;28;20050;-70
2022/09/15 10:54:24;;;;;;;9.93;1.90;;;;;;;;;;4988128;28;20042;-79
2022/09/15 10:57:05;;;;;;;5.22;1.15;;;;;;;;;;4988640;28;20053;-71
2022/09/15 10:59:53;;;;;;;4.15;1.00;;;;;;;;;;4989109;28;20053;-70
2022/09/15 11:02:33;;;;;;;6.80;1.30;;;;;;;;;;4988419;28;20054;-73
2022/09/15 11:05:41;;;;;;;5.80;0.98;;;;;;;;;;4988618;28;20061;-74
2022/09/15 11:08:20;;;;;;;4.07;1.00;;;;;;;;;;4988400;28;20058;-72
2022/09/15 11:11:48;;;;;;;3.88;0.90;;;;;;;;;;4988329;28;20046;-71
2022/09/15 11:14:55;;;;;;;3.60;0.88;;;;;;;;;;4977103;28;20069;-75
2022/09/15 11:17:43;;;;;;;4.95;0.68;;;;;;;;;;4979935;28;20060;-69
2022/09/15 11:20:33;;;;;;;10.73;0.98;;;;;;;;;;4988615;28;20050;-74
2022/09/15 11:23:49;;;;;;;5.00;0.80;;;;;;;;;;4989036;28;20061;-76
2022/09/15 11:26:44;;;;;;;3.25;0.82;;;;;;;;;;4965512;28;20505;-73
2022/09/15 11:29:24;;;;;;;4.50;1.00;;;;;;;;;;4966777;28;20506;-71
2022/09/15 11:32:03;;;;;;;10.82;1.08;;;;;;;;;;4980989;28;20092;-76
2022/09/15 11:34:40;;;;;;;3.70;0.70;;;;;;;;;;4985085;28;20054;-73
2022/09/15 11:37:17;;;;;;;5.35;0.82;;;;;;;;;;4986659;28;20047;-72
2022/09/15 11:39:55;;;;;;;3.10;0.90;;;;;;;;;;4987461;28;20053;-73
2022/09/15 11:42:43;;;;;;;1.27;0.60;;;;;;;;;;4986870;28;20049;-72
2022/09/15 11:45:20;;;;;;;6.20;0.70;;;;;;;;;;4986926;28;20502;-74
2022/09/15 11:47:57;;;;;;;7.93;1.23;;;;;;;;;;4988115;28;20050;-71
2022/09/15 11:50:34;;;;;;;4.13;0.63;;;;;;;;;;4987852;28;20050;-72
2022/09/15 11:53:26;;;;;;;3.05;0.90;;;;;;;;;;4987683;28;20373;-72
2022/09/15 11:56:33;;;;;;;3.60;0.70;;;;;;;;;;4987958;28;20061;-74
2022/09/15 11:59:31;;;;;;;6.50;0.88;;;;;;;;;;4987421;28;20122;-71
2022/09/15 12:02:43;;;;;;;4.30;0.90;;;;;;;;;;4987830;28;20038;-74
2022/09/15 12:05:30;;;;;;;3.33;0.68;;;;;;;;;;4990699;28;20172;-74
2022/09/15 12:08:10;;;;;;;5.50;1.23;;;;;;;;;;4988447;28;20066;-73
2022/09/15 12:10:45;;;;;;;4.28;0.80;;;;;;;;;;4987942;28;20130;-76
2022/09/15 12:13:20;;;;;;;4.32;1.00;;;;;;;;;;4987378;28;20042;-73
2022/09/15 12:15:51;;;;;;;3.63;0.80;;;;;;;;;;4987246;28;20050;-70
2022/09/15 12:18:34;;;;;;;5.82;0.52;;;;;;;;;;4987659;28;20057;-72
2022/09/15 12:21:28;;;;;;;7.03;1.13;;;;;;;;;;4985039;28;20081;-72
2022/09/15 12:24:21;;;;;;;6.07;1.10;;;;;;;;;;4987479;28;20057;-72
2022/09/15 12:26:52;;;;;;;3.75;1.00;;;;;;;;;;4987369;28;20061;-73
2022/09/15 12:29:30;;;;;;;6.05;0.90;;;;;;;;;;4987217;28;20049;-72
2022/09/15 12:32:27;;;;;;;2.65;0.70;;;;;;;;;;4987386;28;20069;-72
2022/09/15 12:35:18;;;;;;;3.40;0.63;;;;;;;;;;4986518;28;20069;-71
2022/09/15 12:37:56;;;;;;;4.50;1.02;;;;;;;;;;4987496;28;20379;-71
2022/09/15 12:40:32;;;;;;;2.40;0.95;;;;;;;;;;4987843;28;20057;-71
2022/09/15 12:43:15;;;;;;;4.28;0.90;;;;;;;;;;4985923;28;20122;-71
2022/09/15 12:46:00;;;;;;;2.10;0.60;;;;;;;;;;4987395;28;20042;-72
2022/09/15 12:48:34;;;;;;;2.25;0.43;;;;;;;;;;4986890;28;20057;-72
2022/09/15 12:51:09;;;;;;;2.20;0.68;;;;;;;;;;4986596;28;20053;-72
2022/09/15 12:54:07;;;;;;;2.58;0.40;;;;;;;;;;4987021;28;20042;-71
2022/09/15 12:56:37;;;;;;;6.53;0.80;;;;;;;;;;4991986;28;20054;-73
2022/09/15 12:59:13;;;;;;;4.20;0.85;;;;;;;;;;4992756;28;20054;-75
2022/09/15 13:01:48;;;;;;;2.88;0.70;;;;;;;;;;4987502;28;20488;-75
2022/09/15 13:04:40;;;;;;;5.80;0.73;;;;;;;;;;4986740;28;20062;-73
2022/09/15 13:07:17;;;;;;;2.08;0.70;;;;;;;;;;4987283;28;20042;-79
2022/09/15 13:10:05;;;;;;;4.80;0.95;;;;;;;;;;4987521;28;20065;-73
2022/09/15 13:12:41;;;;;;;2.10;0.47;;;;;;;;;;4986035;28;20524;-75
2022/09/15 13:15:17;;;;;;;3.92;0.73;;;;;;;;;;4986632;28;20053;-71
2022/09/15 13:17:48;;;;;;;4.90;0.90;;;;;;;;;;4987102;28;20050;-71
2022/09/15 13:20:29;;;;;;;3.85;1.02;;;;;;;;;;4986614;28;20042;-74
2022/09/15 13:23:00;;;;;;;4.78;0.55;;;;;;;;;;4986525;28;20058;-74
2022/09/15 13:25:31;;;;;;;2.30;0.60;;;;;;;;;;4969818;28;20049;-75
2022/09/15 13:28:02;;;;;;;3.05;0.85;;;;;;;;;;4986445;28;20058;-70
2022/09/15 13:31:16;;;;;;;4.88;1.10;;;;;;;;;;4986772;28;20053;-73
2022/09/15 13:34:31;;;;;;;4.10;0.73;;;;;;;;;;4990487;28;20541;-75
2022/09/15 13:37:33;;;;;;;10.13;1.42;;;;;;;;;;5007725;28;20045;-73
2022/09/15 13:40:47;;;;;;;5.32;1.00;;;;;;;;;;5007447;28;20046;-79
2022/09/15 13:43:42;;;;;;;5.55;0.70;;;;;;;;;;4988762;28;20086;-72
2022/09/15 13:46:31;;;;;;;2.13;1.23;;;;;;;;;;4989929;28;20046;-74
2022/09/15 13:49:19;;;;;;;7.07;0.77;;;;;;;;;;4990415;28;20058;-72
2022/09/15 13:52:09;;;;;;;3.50;0.77;;;;;;;;;;4989992;28;20038;-73
2022/09/15 13:55:16;;;;;;;3.42;0.75;;;;;;;;;;4989777;28;20101;-72
2022/09/15 13:57:48;;;;;;;;;;;;;;;;;;4990415;28;20047;-73
2022/09/15 14:01:02;;;;;;;3.20;0.93;;;;;;;;;;4990250;28;19928;-72
2022/09/15 14:03:40;;;;;;;4.03;1.10;;;;;;;;;;4990003;28;20057;-74
2022/09/15 14:06:15;;;;;;;1.73;0.63;;;;;;;;;;4989054;28;20046;-73
2022/09/15 14:08:51;;;;;;;3.63;0.80;;;;;;;;;;4989828;28;20053;-72
2022/09/15 14:11:28;;;;;;;2.35;0.85;;;;;;;;;;4989800;28;20065;-73
2022/09/15 14:13:59;;;;;;;5.38;0.95;;;;;;;;;;4989758;28;20054;-73
2022/09/15 14:16:34;;;;;;;1.80;0.80;;;;;;;;;;4989565;28;20054;-74
2022/09/15 14:19:27;;;;;;;3.08;0.80;;;;;;;;;;4989627;28;20046;-74
2022/09/15 14:21:59;;;;;;;1.63;0.50;;;;;;;;;;4987019;28;20059;-73
2022/09/15 14:24:31;;;;;;;3.28;0.90;;;;;;;;;;4989200;28;20050;-73
2022/09/15 14:27:08;;;;;;;2.17;0.47;;;;;;;;;;4989681;28;20505;-74
2022/09/15 14:29:42;;;;;;;2.65;0.60;;;;;;;;;;4989473;28;20042;-72
2022/09/15 14:32:16;;;;;;;1.58;0.38;;;;;;;;;;4989955;28;20112;-72
2022/09/15 14:34:47;;;;;;;6.43;0.70;;;;;;;;;;4988504;28;20046;-73
2022/09/15 14:37:22;;;;;;;3.55;0.85;;;;;;;;;;4989201;28;20524;-74
2022/09/15 14:39:58;;;;;;;1.20;0.70;;;;;;;;;;4989104;28;20065;-74
2022/09/15 14:42:39;;;;;;;2.30;0.52;;;;;;;;;;4989501;28;20046;-73
2022/09/15 14:45:09;;;;;;;3.20;0.50;;;;;;;;;;4987199;28;20414;-73
2022/09/15 14:48:01;;;;;;;1.85;0.52;;;;;;;;;;4989130;28;20053;-73
2022/09/15 14:50:32;;;;;;;1.65;0.50;;;;;;;;;;4988975;28;20050;-73
2022/09/15 14:53:06;;;;;;;3.55;0.55;;;;;;;;;;4989181;28;20053;-73
2022/09/15 14:55:36;;;;;;;3.70;0.50;;;;;;;;;;4987764;28;20418;-74
2022/09/15 14:58:39;;;;;;;2.22;0.57;;;;;;;;;;4989315;28;20050;-73
2022/09/15 15:01:22;;;;;;;3.83;0.65;;;;;;;;;;4988691;28;20054;-75
2022/09/15 15:03:57;;;;;;;2.88;0.65;;;;;;;;;;4989212;28;20367;-74
2022/09/15 15:06:43;;;;;;;4.00;0.82;;;;;;;;;;4988683;28;20038;-72
2022/09/15 15:09:42;;;;;;;2.83;0.82;;;;;;;;;;4988521;28;20046;-78
2022/09/15 15:12:23;;;;;;;6.65;0.88;;;;;;;;;;4990108;28;20061;-77
2022/09/15 15:14:54;;;;;;;4.75;0.93;;;;;;;;;;4988571;28;20442;-75
2022/09/15 15:17:30;;;;;;;4.15;0.70;;;;;;;;;;4987066;28;20061;-75
2022/09/15 15:20:07;;;;;;;4.63;0.80;;;;;;;;;;4989045;28;20058;-76
2022/09/15 15:22:38;;;;;;;3.35;0.65;;;;;;;;;;4988462;28;20069;-75
2022/09/15 15:25:31;;;;;;;4.65;0.90;;;;;;;;;;4988588;28;20072;-73
2022/09/15 15:28:03;;;;;;;2.55;0.70;;;;;;;;;;4988735;28;20611;-76
2022/09/15 15:30:43;;;;;;;4.38;0.85;;;;;;;;;;4989135;28;20042;-72
2022/09/15 15:33:19;;;;;;;2.88;0.90;;;;;;;;;;4989080;28;20050;-77
2022/09/15 15:36:07;;;;;;;1.75;0.68;;;;;;;;;;4988313;28;20049;-73
2022/09/15 15:38:48;;;;;;;3.05;0.70;;;;;;;;;;4987801;28;20053;-73
2022/09/15 15:41:30;;;;;;;4.85;0.90;;;;;;;;;;4988690;28;20043;-70
2022/09/15 15:44:26;;;;;;;4.20;0.90;;;;;;;;;;4987901;28;20042;-74
2022/09/15 15:47:01;;;;;;;5.68;0.95;;;;;;;;;;4987850;28;20490;-74
2022/09/15 15:49:32;;;;;;;5.00;0.73;;;;;;;;;;4991495;28;20081;-72